createdAt,value
2022-10-01T00:00:31.217Z,13.93
2022-10-01T00:03:05.275Z,14.00
2022-10-01T00:05:37.864Z,13.91
2022-10-01T00:08:10.359Z,14.01
2022-10-01T00:10:43.312Z,14.07
2022-10-01T00:13:15.797Z,14.08
2022-10-01T00:15:48.671Z,14.09
2022-10-01T00:18:22.652Z,14.12
2022-10-01T00:20:55.059Z,13.98
2022-10-01T00:23:27.546Z,14.00
2022-10-01T00:26:09.358Z,14.11
2022-10-01T00:28:43.028Z,14.13
2022-10-01T00:31:16.233Z,13.95
2022-10-01T00:33:53.376Z,14.10
2022-10-01T00:36:26.900Z,14.05
2022-10-01T00:39:00.900Z,14.12
2022-10-01T00:41:35.191Z,14.11
2022-10-01T00:44:30.402Z,14.15
2022-10-01T00:47:08.508Z,14.06
2022-10-01T00:49:44.122Z,14.02
2022-10-01T00:52:20.956Z,14.10
2022-10-01T00:54:56.654Z,14.17
2022-10-01T00:57:30.315Z,14.19
2022-10-01T01:00:07.239Z,14.21
2022-10-01T01:02:40.507Z,14.21
2022-10-01T01:05:14.842Z,14.07
2022-10-01T01:07:49.948Z,14.15
2022-10-01T01:10:30.894Z,14.18
2022-10-01T01:13:13.482Z,14.21
2022-10-01T01:15:55.542Z,14.21
2022-10-01T01:18:34.454Z,14.23
2022-10-01T01:21:15.638Z,14.25
2022-10-01T01:24:12.665Z,14.25
2022-10-01T01:27:07.694Z,14.24
2022-10-01T01:29:49.792Z,14.20
2022-10-01T01:32:28.185Z,14.13
2022-10-01T01:35:04.553Z,14.09
2022-10-01T01:37:40.370Z,14.20
2022-10-01T01:40:16.693Z,14.11
2022-10-01T01:42:51.039Z,14.17
2022-10-01T01:45:30.963Z,14.23
2022-10-01T01:48:04.370Z,14.24
2022-10-01T01:50:44.787Z,14.23
2022-10-01T01:53:17.390Z,14.10
2022-10-01T01:55:50.356Z,14.25
2022-10-01T01:58:26.260Z,14.17
2022-10-01T02:01:00.141Z,14.20
2022-10-01T02:03:35.051Z,14.27
2022-10-01T02:06:18.215Z,14.07
2022-10-01T02:08:59.735Z,14.16
2022-10-01T02:11:38.361Z,14.29
2022-10-01T02:14:20.128Z,14.29
2022-10-01T02:17:03.845Z,14.29
2022-10-01T02:19:38.004Z,14.25
2022-10-01T02:22:13.700Z,14.28
2022-10-01T02:24:49.377Z,14.14
2022-10-01T02:27:28.870Z,14.30
2022-10-01T02:30:08.046Z,14.30
2022-10-01T02:32:44.779Z,14.20
2022-10-01T02:35:19.541Z,14.30
2022-10-01T02:37:54.734Z,14.31
2022-10-01T02:40:31.137Z,14.28
2022-10-01T02:43:07.597Z,14.36
2022-10-01T02:45:43.362Z,14.26
2022-10-01T02:48:18.253Z,14.38
2022-10-01T02:50:53.001Z,14.34
2022-10-01T02:53:31.731Z,14.39
2022-10-01T02:56:06.199Z,14.35
2022-10-01T02:58:38.692Z,14.41
2022-10-01T03:01:11.245Z,14.42
2022-10-01T03:03:45.153Z,14.44
2022-10-01T03:06:17.569Z,14.44
2022-10-01T03:08:50.117Z,14.37
2022-10-01T03:11:22.616Z,14.39
2022-10-01T03:13:55.042Z,14.46
2022-10-01T03:16:27.542Z,14.38
2022-10-01T03:19:01.538Z,14.47
2022-10-01T03:21:34.100Z,14.48
2022-10-01T03:24:07.093Z,14.48
2022-10-01T03:26:39.590Z,14.49
2022-10-01T03:29:13.425Z,14.49
2022-10-01T03:31:45.880Z,14.52
2022-10-01T03:34:20.496Z,14.45
2022-10-01T03:36:52.998Z,14.52
2022-10-01T03:39:25.406Z,14.50
2022-10-01T03:41:58.247Z,14.46
2022-10-01T03:44:30.599Z,14.53
2022-10-01T03:47:03.229Z,14.54
2022-10-01T03:49:37.473Z,14.54
2022-10-01T03:52:09.912Z,14.52
2022-10-01T03:54:42.343Z,14.51
2022-10-01T03:57:14.917Z,14.53
2022-10-01T03:59:47.401Z,14.54
2022-10-01T04:02:20.483Z,14.53
2022-10-01T04:04:54.418Z,14.56
2022-10-01T04:07:26.929Z,14.54
2022-10-01T04:09:59.487Z,14.46
2022-10-01T04:12:32.031Z,14.58
2022-10-01T04:15:04.881Z,14.58
2022-10-01T04:17:37.591Z,14.61
2022-10-01T04:20:11.549Z,14.59
2022-10-01T04:22:44.706Z,14.63
2022-10-01T04:25:17.484Z,14.64
2022-10-01T04:27:58.595Z,14.66
2022-10-01T04:30:33.196Z,14.63
2022-10-01T04:33:06.630Z,14.62
2022-10-01T04:35:40.639Z,14.61
2022-10-01T04:38:16.027Z,14.64
2022-10-01T04:40:48.701Z,14.71
2022-10-01T04:43:21.232Z,14.70
2022-10-01T04:45:53.666Z,14.70
2022-10-01T04:48:26.210Z,14.65
2022-10-01T04:51:00.052Z,14.80
2022-10-01T04:53:32.473Z,14.80
2022-10-01T04:56:05.178Z,14.84
2022-10-01T04:58:38.608Z,14.79
2022-10-01T05:01:11.154Z,14.90
2022-10-01T05:03:43.743Z,14.93
2022-10-01T05:06:17.808Z,14.92
2022-10-01T05:08:52.214Z,14.93
2022-10-01T05:11:24.672Z,15.05
2022-10-01T05:13:57.285Z,15.06
2022-10-01T05:16:29.957Z,15.10
2022-10-01T05:19:02.365Z,15.08
2022-10-01T05:21:37.416Z,15.13
2022-10-01T05:24:10.216Z,15.18
2022-10-01T05:26:42.725Z,15.24
2022-10-01T05:29:15.348Z,15.15
2022-10-01T05:31:48.081Z,15.25
2022-10-01T05:34:20.618Z,15.26
2022-10-01T05:36:55.571Z,15.01
2022-10-01T05:39:28.129Z,15.22
2022-10-01T05:42:06.151Z,15.21
2022-10-01T05:44:40.943Z,15.21
2022-10-01T05:47:14.278Z,15.26
2022-10-01T05:49:46.936Z,15.31
2022-10-01T05:52:20.838Z,15.30
2022-10-01T05:54:53.325Z,15.27
2022-10-01T05:57:25.842Z,15.26
2022-10-01T05:59:58.490Z,15.37
2022-10-01T06:02:31.036Z,15.39
2022-10-01T06:05:03.932Z,15.47
2022-10-01T06:07:37.995Z,15.48
2022-10-01T06:10:10.630Z,15.41
2022-10-01T06:12:43.530Z,15.51
2022-10-01T06:15:17.538Z,15.53
2022-10-01T06:17:50.111Z,15.50
2022-10-01T06:20:24.235Z,15.44
2022-10-01T06:22:58.941Z,15.41
2022-10-01T06:25:33.222Z,15.33
2022-10-01T06:28:07.470Z,15.32
2022-10-01T06:30:40.414Z,15.29
2022-10-01T06:33:14.708Z,15.34
2022-10-01T06:35:48.869Z,15.30
2022-10-01T06:38:24.187Z,15.25
2022-10-01T06:40:58.273Z,15.20
2022-10-01T06:43:32.206Z,15.16
2022-10-01T06:46:05.928Z,15.07
2022-10-01T06:48:38.491Z,14.98
2022-10-01T06:51:10.993Z,14.92
2022-10-01T06:53:45.018Z,14.93
2022-10-01T06:56:17.511Z,14.98
2022-10-01T06:58:50.007Z,14.99
2022-10-01T07:01:22.626Z,14.99
2022-10-01T07:03:55.684Z,14.98
2022-10-01T07:06:28.250Z,14.98
2022-10-01T07:09:02.215Z,14.96
2022-10-01T07:11:36.934Z,14.86
2022-10-01T07:14:09.636Z,14.92
2022-10-01T07:16:42.143Z,14.90
2022-10-01T07:19:14.524Z,14.88
2022-10-01T07:21:48.638Z,14.84
2022-10-01T07:24:22.496Z,14.87
2022-10-01T07:26:55.757Z,14.84
2022-10-01T07:29:29.406Z,14.83
2022-10-01T07:32:04.286Z,14.91
2022-10-01T07:34:38.653Z,14.92
2022-10-01T07:37:11.321Z,14.96
2022-10-01T07:39:45.091Z,14.98
2022-10-01T07:42:17.632Z,15.06
2022-10-01T07:44:50.175Z,15.13
2022-10-01T07:47:22.758Z,15.18
2022-10-01T07:49:55.308Z,15.30
2022-10-01T07:52:27.788Z,15.41
2022-10-01T07:55:01.708Z,15.54
2022-10-01T07:57:35.827Z,15.59
2022-10-01T08:00:09.644Z,15.65
2022-10-01T08:02:47.821Z,15.66
2022-10-01T08:05:22.296Z,15.73
2022-10-01T08:07:58.975Z,15.59
2022-10-01T08:10:36.888Z,15.77
2022-10-01T08:13:15.169Z,15.77
2022-10-01T08:15:50.790Z,15.76
2022-10-01T08:18:24.177Z,15.81
2022-10-01T08:20:56.652Z,15.83
2022-10-01T08:23:30.557Z,15.77
2022-10-01T08:26:07.730Z,15.84
2022-10-01T08:28:41.118Z,15.86
2022-10-01T08:31:13.670Z,15.91
2022-10-01T08:33:46.290Z,15.90
2022-10-01T08:36:19.585Z,15.95
2022-10-01T08:38:52.128Z,16.01
2022-10-01T08:41:37.800Z,15.97
2022-10-01T08:44:20.073Z,15.99
2022-10-01T08:46:54.644Z,15.82
2022-10-01T08:49:33.274Z,16.11
2022-10-01T08:52:14.707Z,16.13
2022-10-01T08:54:51.421Z,15.89
2022-10-01T08:57:29.997Z,15.94
2022-10-01T09:00:07.976Z,16.27
2022-10-01T09:02:42.335Z,16.33
2022-10-01T09:05:23.752Z,16.36
2022-10-01T09:08:08.416Z,16.36
2022-10-01T09:10:45.755Z,16.42
2022-10-01T09:13:50.040Z,16.48
2022-10-01T09:16:27.713Z,16.42
2022-10-01T09:19:08.853Z,16.47
2022-10-01T09:21:53.732Z,16.62
2022-10-01T09:24:41.338Z,16.61
2022-10-01T09:27:16.192Z,16.59
2022-10-01T09:29:55.331Z,16.66
2022-10-01T09:32:33.506Z,16.60
2022-10-01T09:35:20.374Z,16.64
2022-10-01T09:37:57.760Z,16.73
2022-10-01T09:40:35.887Z,16.56
2022-10-01T09:43:11.559Z,16.55
2022-10-01T09:45:45.876Z,16.77
2022-10-01T09:48:25.681Z,16.49
2022-10-01T09:51:07.351Z,16.56
2022-10-01T09:56:23.894Z,16.64
2022-10-01T09:59:02.051Z,16.75
2022-10-01T10:01:43.770Z,16.80
2022-10-01T10:04:20.906Z,16.81
2022-10-01T10:07:01.347Z,16.87
2022-10-01T10:09:35.850Z,16.97
2022-10-01T10:12:29.688Z,16.82
2022-10-01T10:15:08.832Z,17.05
2022-10-01T10:17:44.483Z,16.87
2022-10-01T10:20:24.696Z,16.99
2022-10-01T10:23:07.982Z,17.07
2022-10-01T10:25:40.654Z,17.06
2022-10-01T10:28:20.904Z,16.78
2022-10-01T10:30:55.704Z,16.98
2022-10-01T10:33:29.586Z,17.07
2022-10-01T10:36:05.128Z,17.23
2022-10-01T10:38:38.729Z,17.27
2022-10-01T10:41:17.578Z,17.11
2022-10-01T10:43:50.121Z,17.11
2022-10-01T10:46:29.481Z,17.12
2022-10-01T10:49:09.500Z,17.19
2022-10-01T10:51:51.560Z,17.22
2022-10-01T10:54:30.364Z,17.11
2022-10-01T10:57:16.475Z,17.08
2022-10-01T10:59:59.785Z,17.08
2022-10-01T11:02:33.765Z,17.09
2022-10-01T11:05:23.496Z,17.02
2022-10-01T11:07:59.603Z,17.19
2022-10-01T11:10:44.050Z,17.25
2022-10-01T11:13:32.880Z,17.25
2022-10-01T11:16:45.311Z,17.30
2022-10-01T11:19:42.555Z,17.38
2022-10-01T11:22:35.599Z,17.38
2022-10-01T11:25:25.568Z,17.44
2022-10-01T11:28:06.875Z,17.37
2022-10-01T11:30:54.294Z,17.49
2022-10-01T11:33:36.823Z,17.45
2022-10-01T11:36:21.428Z,17.56
2022-10-01T11:39:00.528Z,17.56
2022-10-01T11:41:39.366Z,17.54
2022-10-01T11:44:18.407Z,17.50
2022-10-01T11:46:55.763Z,17.59
2022-10-01T11:49:47.171Z,17.59
2022-10-01T11:52:28.376Z,17.56
2022-10-01T11:55:35.085Z,17.52
2022-10-01T11:58:34.763Z,17.54
2022-10-01T12:01:12.808Z,17.49
2022-10-01T12:04:00.653Z,17.41
2022-10-01T12:06:38.035Z,17.40
2022-10-01T12:09:17.826Z,17.30
2022-10-01T12:12:00.371Z,17.36
2022-10-01T12:14:41.202Z,17.34
2022-10-01T12:17:20.521Z,17.28
2022-10-01T12:19:57.388Z,17.27
2022-10-01T12:22:32.937Z,17.29
2022-10-01T12:25:12.070Z,17.23
2022-10-01T12:27:59.213Z,17.29
2022-10-01T12:30:38.948Z,17.28
2022-10-01T12:33:31.416Z,17.34
2022-10-01T12:36:17.476Z,17.40
2022-10-01T12:39:04.847Z,17.41
2022-10-01T12:41:48.492Z,17.49
2022-10-01T12:44:41.975Z,17.56
2022-10-01T12:47:28.644Z,17.53
2022-10-01T12:50:14.819Z,17.47
2022-10-01T12:52:56.274Z,17.57
2022-10-01T12:55:55.080Z,17.53
2022-10-01T12:58:43.831Z,17.50
2022-10-01T13:01:27.316Z,17.33
2022-10-01T13:04:17.437Z,17.43
2022-10-01T13:07:05.210Z,17.40
2022-10-01T13:09:49.011Z,17.36
2022-10-01T13:12:45.635Z,17.33
2022-10-01T13:15:22.279Z,17.33
2022-10-01T13:18:02.738Z,17.32
2022-10-01T13:20:41.184Z,17.21
2022-10-01T13:23:21.349Z,17.30
2022-10-01T13:26:02.081Z,17.30
2022-10-01T13:29:01.055Z,17.24
2022-10-01T13:31:38.691Z,17.27
2022-10-01T13:34:34.491Z,17.24
2022-10-01T13:37:14.860Z,17.23
2022-10-01T13:39:47.723Z,17.21
2022-10-01T13:42:24.304Z,17.10
2022-10-01T13:44:59.040Z,17.21
2022-10-01T13:47:33.646Z,17.19
2022-10-01T13:50:22.691Z,17.20
2022-10-01T13:53:07.322Z,17.17
2022-10-01T13:55:43.936Z,17.16
2022-10-01T13:58:30.942Z,17.15
2022-10-01T14:01:06.131Z,17.11
2022-10-01T14:03:45.186Z,17.09
2022-10-01T14:06:25.238Z,17.11
2022-10-01T14:09:04.760Z,17.05
2022-10-01T14:11:57.354Z,17.07
2022-10-01T14:14:53.793Z,17.07
2022-10-01T14:17:31.136Z,16.93
2022-10-01T14:20:05.329Z,17.03
2022-10-01T14:23:08.820Z,17.00
2022-10-01T14:25:53.386Z,16.90
2022-10-01T14:28:48.199Z,16.98
2022-10-01T14:31:33.378Z,16.83
2022-10-01T14:34:37.317Z,16.96
2022-10-01T14:37:17.378Z,16.93
2022-10-01T14:40:03.302Z,16.92
2022-10-01T14:42:36.187Z,16.78
2022-10-01T14:45:16.532Z,16.91
2022-10-01T14:48:00.386Z,16.92
2022-10-01T14:50:35.292Z,16.79
2022-10-01T14:53:15.741Z,16.88
2022-10-01T14:55:53.920Z,16.87
2022-10-01T14:58:30.954Z,16.84
2022-10-01T15:01:09.731Z,16.80
2022-10-01T15:03:48.141Z,16.88
2022-10-01T15:06:28.960Z,16.42
2022-10-01T15:09:12.092Z,16.80
2022-10-01T15:11:49.126Z,16.39
2022-10-01T15:14:24.970Z,16.29
2022-10-01T15:17:03.219Z,16.47
2022-10-01T15:19:43.668Z,16.77
2022-10-01T15:22:16.886Z,16.66
2022-10-01T15:24:52.726Z,16.82
2022-10-01T15:27:27.307Z,16.39
2022-10-01T15:30:00.717Z,16.25
2022-10-01T15:32:33.929Z,16.51
2022-10-01T15:35:12.248Z,16.26
2022-10-01T15:37:50.054Z,16.85
2022-10-01T15:40:28.366Z,16.34
2022-10-01T15:43:26.580Z,16.72
2022-10-01T15:46:30.155Z,16.84
2022-10-01T15:49:15.375Z,16.73
2022-10-01T15:52:12.093Z,16.75
2022-10-01T15:54:47.704Z,16.70
2022-10-01T15:57:23.751Z,16.80
2022-10-01T16:00:00.616Z,16.71
2022-10-01T16:02:33.766Z,16.71
2022-10-01T16:05:07.541Z,16.81
2022-10-01T16:07:40.442Z,16.64
2022-10-01T16:10:26.347Z,16.83
2022-10-01T16:12:59.118Z,16.81
2022-10-01T16:15:33.226Z,16.79
2022-10-01T16:18:21.881Z,16.83
2022-10-01T16:20:58.289Z,16.83
2022-10-01T16:23:35.845Z,16.80
2022-10-01T16:26:38.116Z,16.74
2022-10-01T16:29:24.095Z,16.70
2022-10-01T16:31:58.237Z,16.66
2022-10-01T16:34:30.828Z,16.63
2022-10-01T16:37:08.296Z,16.60
2022-10-01T16:39:40.685Z,16.58
2022-10-01T16:42:24.201Z,16.59
2022-10-01T16:44:57.395Z,16.56
2022-10-01T16:47:31.407Z,16.58
2022-10-01T16:50:06.693Z,16.58
2022-10-01T16:52:40.321Z,16.56
2022-10-01T16:55:18.566Z,16.59
2022-10-01T16:57:51.898Z,16.60
2022-10-01T17:00:26.723Z,16.58
2022-10-01T17:03:00.849Z,16.60
2022-10-01T17:05:35.874Z,16.62
2022-10-01T17:08:11.573Z,16.52
2022-10-01T17:10:46.100Z,16.61
2022-10-01T17:13:18.709Z,16.62
2022-10-01T17:15:51.954Z,16.62
2022-10-01T17:18:26.090Z,16.62
2022-10-01T17:20:59.703Z,16.59
2022-10-01T17:23:32.428Z,16.50
2022-10-01T17:26:06.381Z,16.54
2022-10-01T17:28:39.491Z,16.63
2022-10-01T17:31:17.576Z,16.64
2022-10-01T17:33:52.488Z,16.65
2022-10-01T17:36:25.387Z,16.62
2022-10-01T17:38:58.706Z,16.65
2022-10-01T17:41:31.813Z,16.64
2022-10-01T17:44:05.049Z,16.65
2022-10-01T17:46:38.165Z,16.66
2022-10-01T17:49:13.386Z,16.62
2022-10-01T17:51:46.725Z,16.68
2022-10-01T17:54:21.583Z,16.63
2022-10-01T17:56:57.711Z,16.65
2022-10-01T17:59:30.564Z,16.60
2022-10-01T18:02:18.669Z,16.60
2022-10-01T18:04:57.971Z,16.47
2022-10-01T18:07:31.011Z,16.45
2022-10-01T18:10:05.651Z,16.45
2022-10-01T18:12:39.517Z,16.46
2022-10-01T18:15:14.060Z,16.39
2022-10-01T18:17:51.440Z,16.40
2022-10-01T18:20:26.282Z,16.40
2022-10-01T18:22:59.075Z,16.33
2022-10-01T18:25:33.948Z,16.40
2022-10-01T18:28:07.082Z,16.33
2022-10-01T18:30:40.431Z,16.33
2022-10-01T18:33:14.105Z,16.29
2022-10-01T18:35:55.137Z,16.34
2022-10-01T18:38:32.373Z,16.32
2022-10-01T18:41:14.741Z,16.31
2022-10-01T18:43:47.828Z,16.30
2022-10-01T18:46:29.073Z,16.30
2022-10-01T18:49:15.647Z,16.26
2022-10-01T18:52:05.378Z,16.28
2022-10-01T18:55:18.945Z,16.26
2022-10-01T18:58:20.133Z,16.26
2022-10-01T19:01:00.945Z,16.13
2022-10-01T19:03:53.751Z,16.23
2022-10-01T19:06:45.113Z,16.23
2022-10-01T19:09:30.813Z,15.93
2022-10-01T19:12:23.693Z,16.26
2022-10-01T19:15:04.210Z,16.25
2022-10-01T19:17:56.187Z,16.23
2022-10-01T19:20:48.601Z,16.24
2022-10-01T19:23:39.975Z,16.24
2022-10-01T19:26:21.679Z,16.17
2022-10-01T19:29:10.885Z,16.21
2022-10-01T19:31:52.932Z,16.14
2022-10-01T19:34:31.210Z,16.16
2022-10-01T19:37:07.150Z,16.15
2022-10-01T19:39:42.471Z,16.15
2022-10-01T19:42:21.363Z,16.13
2022-10-01T19:45:00.784Z,16.13
2022-10-01T19:47:41.512Z,16.10
2022-10-01T19:50:19.937Z,16.09
2022-10-01T19:52:56.319Z,16.00
2022-10-01T19:55:38.297Z,16.07
2022-10-01T19:58:18.254Z,16.03
2022-10-01T20:00:55.948Z,15.99
2022-10-01T20:03:38.193Z,16.01
2022-10-01T20:06:18.769Z,15.98
2022-10-01T20:08:56.089Z,16.00
2022-10-01T20:11:31.326Z,15.97
2022-10-01T20:14:54.519Z,15.97
2022-10-01T20:17:34.234Z,15.91
2022-10-01T20:20:16.379Z,15.92
2022-10-01T20:23:04.446Z,15.91
2022-10-01T20:25:43.443Z,15.83
2022-10-01T20:28:20.544Z,15.87
2022-10-01T20:31:03.452Z,15.78
2022-10-01T20:33:43.443Z,15.86
2022-10-01T20:36:21.715Z,15.71
2022-10-01T20:39:04.013Z,15.82
2022-10-01T20:41:44.267Z,15.81
2022-10-01T20:44:22.208Z,15.79
2022-10-01T20:47:02.264Z,15.64
2022-10-01T20:49:40.288Z,15.75
2022-10-01T20:52:20.202Z,15.62
2022-10-01T20:54:56.669Z,15.73
2022-10-01T20:57:34.928Z,15.61
2022-10-01T21:00:14.371Z,15.68
2022-10-01T21:02:54.935Z,15.59
2022-10-01T21:05:33.800Z,15.56
2022-10-01T21:08:17.455Z,15.67
2022-10-01T21:10:54.177Z,15.66
2022-10-01T21:13:37.241Z,15.60
2022-10-01T21:16:23.137Z,15.62
2022-10-01T21:19:07.996Z,15.57
2022-10-01T21:21:54.507Z,15.52
2022-10-01T21:24:42.010Z,15.31
2022-10-01T21:27:31.674Z,15.46
2022-10-01T21:30:09.133Z,15.44
2022-10-01T21:33:03.869Z,15.30
2022-10-01T21:35:50.879Z,15.23
2022-10-01T21:38:31.843Z,15.29
2022-10-01T21:41:28.402Z,15.34
2022-10-01T21:44:38.175Z,15.35
2022-10-01T21:47:18.904Z,15.28
2022-10-01T21:50:04.350Z,15.32
2022-10-01T21:52:46.966Z,15.10
2022-10-01T21:55:48.954Z,15.29
2022-10-01T21:58:36.420Z,15.25
2022-10-01T22:01:16.432Z,15.26
2022-10-01T22:03:55.410Z,15.17
2022-10-01T22:06:36.313Z,15.09
2022-10-01T22:09:19.285Z,14.93
2022-10-01T22:11:55.409Z,15.14
2022-10-01T22:14:29.737Z,14.78
2022-10-01T22:17:07.338Z,15.12
2022-10-01T22:19:44.884Z,14.88
2022-10-01T22:22:22.051Z,15.01
2022-10-01T22:24:58.886Z,14.72
2022-10-01T22:27:37.201Z,15.02
2022-10-01T22:30:12.987Z,14.60
2022-10-01T22:32:50.484Z,14.91
2022-10-01T22:35:26.939Z,14.78
2022-10-01T22:38:07.547Z,14.42
2022-10-01T22:40:47.130Z,14.66
2022-10-01T22:43:19.806Z,14.64
2022-10-01T22:46:11.176Z,14.60
2022-10-01T22:48:52.577Z,14.45
2022-10-01T22:51:46.716Z,14.44
2022-10-01T22:54:35.941Z,14.50
2022-10-01T22:57:20.201Z,14.39
2022-10-01T23:00:02.079Z,14.18
2022-10-01T23:02:41.332Z,14.36
2022-10-01T23:05:35.021Z,14.01
2022-10-01T23:08:17.208Z,14.20
2022-10-01T23:11:01.713Z,14.26
2022-10-01T23:13:44.453Z,14.19
2022-10-01T23:16:24.796Z,14.11
2022-10-01T23:19:07.707Z,14.17
2022-10-01T23:21:49.965Z,14.20
2022-10-01T23:24:36.977Z,14.18
2022-10-01T23:27:23.973Z,14.26
2022-10-01T23:30:08.455Z,14.18
2022-10-01T23:33:09.505Z,14.30
2022-10-01T23:35:48.877Z,14.06
2022-10-01T23:38:38.776Z,14.25
2022-10-01T23:41:19.021Z,14.23
2022-10-01T23:43:54.554Z,14.28
2022-10-01T23:46:31.835Z,14.30
2022-10-01T23:49:11.537Z,14.28
2022-10-01T23:51:52.462Z,14.30
2022-10-01T23:54:30.272Z,14.34
2022-10-01T23:57:07.868Z,14.13
2022-10-01T23:59:46.104Z,14.12
